sensor_id;sensor_type;location;lat;lon;timestamp;pressure;altitude;pressure_sealevel;temperature;humidity
1726;BME280;41776;48.260;8.928;2023-09-07T00:02:23;51822.59;;;-145.69;54.94
1726;BME280;41776;48.260;8.928;2023-09-07T00:04:49;51818.63;;;-145.69;54.63
1726;BME280;41776;48.260;8.928;2023-09-07T00:07:17;51784.97;;;-145.69;54.28
1726;BME280;41776;48.260;8.928;2023-09-07T00:09:45;51828.53;;;-145.69;54.35
1726;BME280;41776;48.260;8.928;2023-09-07T00:12:12;51802.78;;;-145.69;54.66
1726;BME280;41776;48.260;8.928;2023-09-07T00:14:40;51830.50;;;-145.69;54.57
1726;BME280;41776;48.260;8.928;2023-09-07T00:17:08;51810.72;;;-145.69;54.43
1726;BME280;41776;48.260;8.928;2023-09-07T00:19:35;51848.34;;;-145.69;54.95
1726;BME280;41776;48.260;8.928;2023-09-07T00:22:02;51826.56;;;-145.69;55.21
1726;BME280;41776;48.260;8.928;2023-09-07T00:24:31;51836.44;;;-145.69;55.41
1726;BME280;41776;48.260;8.928;2023-09-07T00:26:59;51830.50;;;-145.69;55.97
1726;BME280;41776;48.260;8.928;2023-09-07T00:29:26;51814.66;;;-145.69;55.65
1726;BME280;41776;48.260;8.928;2023-09-07T00:31:52;51830.50;;;-145.69;55.99
1726;BME280;41776;48.260;8.928;2023-09-07T00:34:19;51842.38;;;-145.69;56.20
1726;BME280;41776;48.260;8.928;2023-09-07T00:36:47;51818.63;;;-145.69;56.07
1726;BME280;41776;48.260;8.928;2023-09-07T00:39:14;51818.63;;;-145.69;55.87
1726;BME280;41776;48.260;8.928;2023-09-07T00:41:42;51872.09;;;-145.69;55.59
1726;BME280;41776;48.260;8.928;2023-09-07T00:44:08;51794.88;;;-145.69;55.59
1726;BME280;41776;48.260;8.928;2023-09-07T00:46:35;51824.56;;;-145.69;55.42
1726;BME280;41776;48.260;8.928;2023-09-07T00:49:02;51834.47;;;-145.69;55.88
1726;BME280;41776;48.260;8.928;2023-09-07T00:51:30;51846.34;;;-145.69;56.05
1726;BME280;41776;48.260;8.928;2023-09-07T00:53:59;51828.53;;;-145.69;56.14
1726;BME280;41776;48.260;8.928;2023-09-07T00:56:26;51806.75;;;-145.69;56.25
1726;BME280;41776;48.260;8.928;2023-09-07T00:58:54;51830.50;;;-145.69;56.58
1726;BME280;41776;48.260;8.928;2023-09-07T01:01:25;51820.59;;;-145.69;55.95
1726;BME280;41776;48.260;8.928;2023-09-07T01:03:52;51810.72;;;-145.69;56.63
1726;BME280;41776;48.260;8.928;2023-09-07T01:06:23;51806.75;;;-145.69;56.12
1726;BME280;41776;48.260;8.928;2023-09-07T01:08:54;51826.56;;;-145.69;56.29
1726;BME280;41776;48.260;8.928;2023-09-07T01:11:22;51838.44;;;-145.69;56.48
1726;BME280;41776;48.260;8.928;2023-09-07T01:13:49;51790.91;;;-145.69;57.17
1726;BME280;41776;48.260;8.928;2023-09-07T01:16:16;51792.88;;;-145.69;56.35
1726;BME280;41776;48.260;8.928;2023-09-07T01:18:43;51820.59;;;-145.69;56.57
1726;BME280;41776;48.260;8.928;2023-09-07T01:21:12;51824.56;;;-145.69;56.82
1726;BME280;41776;48.260;8.928;2023-09-07T01:23:41;51822.59;;;-145.69;56.80
1726;BME280;41776;48.260;8.928;2023-09-07T01:26:11;51800.81;;;-145.69;56.20
1726;BME280;41776;48.260;8.928;2023-09-07T01:28:38;51818.63;;;-145.69;56.25
1726;BME280;41776;48.260;8.928;2023-09-07T01:31:04;51838.44;;;-145.69;56.65
1726;BME280;41776;48.260;8.928;2023-09-07T01:33:31;51830.50;;;-145.69;55.96
1726;BME280;41776;48.260;8.928;2023-09-07T01:35:58;51842.38;;;-145.69;55.93
1726;BME280;41776;48.260;8.928;2023-09-07T01:38:25;51848.34;;;-145.69;56.34
1726;BME280;41776;48.260;8.928;2023-09-07T01:40:55;51838.44;;;-145.69;56.51
1726;BME280;41776;48.260;8.928;2023-09-07T01:43:24;51828.53;;;-145.69;56.67
1726;BME280;41776;48.260;8.928;2023-09-07T01:45:51;51840.41;;;-145.69;56.72
1726;BME280;41776;48.260;8.928;2023-09-07T01:48:17;51840.41;;;-145.69;56.88
1726;BME280;41776;48.260;8.928;2023-09-07T01:50:44;51858.22;;;-145.69;57.00
1726;BME280;41776;48.260;8.928;2023-09-07T01:53:10;51820.59;;;-145.69;57.30
1726;BME280;41776;48.260;8.928;2023-09-07T01:55:37;51820.59;;;-145.69;57.08
1726;BME280;41776;48.260;8.928;2023-09-07T01:58:05;51814.66;;;-145.69;57.06
1726;BME280;41776;48.260;8.928;2023-09-07T02:00:36;51826.56;;;-145.69;57.67
1726;BME280;41776;48.260;8.928;2023-09-07T02:03:04;51818.63;;;-145.69;58.00
1726;BME280;41776;48.260;8.928;2023-09-07T02:05:32;51846.34;;;-145.69;57.63
1726;BME280;41776;48.260;8.928;2023-09-07T02:08:00;51838.44;;;-145.69;58.16
1726;BME280;41776;48.260;8.928;2023-09-07T02:10:27;51848.34;;;-145.69;58.48
1726;BME280;41776;48.260;8.928;2023-09-07T02:12:53;51856.25;;;-145.69;58.50
1726;BME280;41776;48.260;8.928;2023-09-07T02:15:23;51826.56;;;-145.69;58.98
1726;BME280;41776;48.260;8.928;2023-09-07T02:17:50;51830.50;;;-145.69;58.40
1726;BME280;41776;48.260;8.928;2023-09-07T02:20:19;51846.34;;;-145.69;58.21
1726;BME280;41776;48.260;8.928;2023-09-07T02:22:46;51838.44;;;-145.69;57.47
1726;BME280;41776;48.260;8.928;2023-09-07T02:25:12;51814.66;;;-145.69;57.40
1726;BME280;41776;48.260;8.928;2023-09-07T02:27:40;51844.38;;;-145.69;57.40
1726;BME280;41776;48.260;8.928;2023-09-07T02:30:07;51830.50;;;-145.69;57.68
1726;BME280;41776;48.260;8.928;2023-09-07T02:32:35;51842.38;;;-145.69;57.69
1726;BME280;41776;48.260;8.928;2023-09-07T02:35:01;51814.66;;;-145.69;57.86
1726;BME280;41776;48.260;8.928;2023-09-07T02:37:29;51842.38;;;-145.69;58.68
1726;BME280;41776;48.260;8.928;2023-09-07T02:39:56;51856.25;;;-145.69;58.36
1726;BME280;41776;48.260;8.928;2023-09-07T02:42:22;51838.44;;;-145.69;58.78
1726;BME280;41776;48.260;8.928;2023-09-07T02:44:50;51814.66;;;-145.69;58.34
1726;BME280;41776;48.260;8.928;2023-09-07T02:47:17;51858.22;;;-145.69;58.68
1726;BME280;41776;48.260;8.928;2023-09-07T02:49:45;51850.31;;;-145.69;58.28
1726;BME280;41776;48.260;8.928;2023-09-07T02:52:11;51870.13;;;-145.69;58.30
1726;BME280;41776;48.260;8.928;2023-09-07T02:54:41;51846.34;;;-145.69;58.23
1726;BME280;41776;48.260;8.928;2023-09-07T02:57:08;51846.34;;;-145.69;58.00
1726;BME280;41776;48.260;8.928;2023-09-07T02:59:34;51806.75;;;-145.69;57.94
1726;BME280;41776;48.260;8.928;2023-09-07T03:02:01;51844.38;;;-145.69;57.46
1726;BME280;41776;48.260;8.928;2023-09-07T03:04:27;51820.59;;;-145.69;57.34
1726;BME280;41776;48.260;8.928;2023-09-07T03:06:55;51850.31;;;-145.69;57.04
1726;BME280;41776;48.260;8.928;2023-09-07T03:09:22;51832.50;;;-145.69;56.74
1726;BME280;41776;48.260;8.928;2023-09-07T03:11:49;51878.03;;;-145.69;57.28
1726;BME280;41776;48.260;8.928;2023-09-07T03:14:15;51854.28;;;-145.69;57.38
1726;BME280;41776;48.260;8.928;2023-09-07T03:16:43;51856.25;;;-145.69;57.85
1726;BME280;41776;48.260;8.928;2023-09-07T03:19:10;51850.31;;;-145.69;58.80
1726;BME280;41776;48.260;8.928;2023-09-07T03:21:36;51822.59;;;-145.69;57.93
1726;BME280;41776;48.260;8.928;2023-09-07T03:24:05;51858.22;;;-145.69;57.45
1726;BME280;41776;48.260;8.928;2023-09-07T03:26:32;51844.38;;;-145.69;57.65
1726;BME280;41776;48.260;8.928;2023-09-07T03:28:58;51840.41;;;-145.69;57.43
1726;BME280;41776;48.260;8.928;2023-09-07T03:31:25;51866.16;;;-145.69;58.31
1726;BME280;41776;48.260;8.928;2023-09-07T03:33:51;51868.13;;;-145.69;58.42
1726;BME280;41776;48.260;8.928;2023-09-07T03:36:18;51842.38;;;-145.69;58.52
1726;BME280;41776;48.260;8.928;2023-09-07T03:38:44;51854.28;;;-145.69;58.33
1726;BME280;41776;48.260;8.928;2023-09-07T03:41:12;51872.09;;;-145.69;58.46
1726;BME280;41776;48.260;8.928;2023-09-07T03:43:39;51840.41;;;-145.69;58.09
1726;BME280;41776;48.260;8.928;2023-09-07T03:46:05;51864.16;;;-145.69;58.04
1726;BME280;41776;48.260;8.928;2023-09-07T03:48:32;51836.44;;;-145.69;58.22
1726;BME280;41776;48.260;8.928;2023-09-07T03:50:58;51848.34;;;-145.69;58.53
1726;BME280;41776;48.260;8.928;2023-09-07T03:53:26;51834.47;;;-145.69;58.11
1726;BME280;41776;48.260;8.928;2023-09-07T03:55:53;51844.38;;;-145.69;58.18
1726;BME280;41776;48.260;8.928;2023-09-07T03:58:21;51842.38;;;-145.69;57.88
1726;BME280;41776;48.260;8.928;2023-09-07T04:00:47;51856.25;;;-145.69;57.93
1726;BME280;41776;48.260;8.928;2023-09-07T04:03:14;51868.13;;;-145.69;58.08
1726;BME280;41776;48.260;8.928;2023-09-07T04:05:40;51889.91;;;-145.69;58.11
1726;BME280;41776;48.260;8.928;2023-09-07T04:08:09;51878.03;;;-145.69;58.42
1726;BME280;41776;48.260;8.928;2023-09-07T04:10:37;51874.06;;;-145.69;58.46
1726;BME280;41776;48.260;8.928;2023-09-07T04:13:04;51834.47;;;-145.69;58.26
1726;BME280;41776;48.260;8.928;2023-09-07T04:15:32;51874.06;;;-145.69;58.31
1726;BME280;41776;48.260;8.928;2023-09-07T04:17:59;51836.44;;;-145.69;58.95
1726;BME280;41776;48.260;8.928;2023-09-07T04:20:26;51834.47;;;-145.69;58.33
1726;BME280;41776;48.260;8.928;2023-09-07T04:22:54;51899.81;;;-145.69;58.03
1726;BME280;41776;48.260;8.928;2023-09-07T04:25:21;51878.03;;;-145.69;58.34
1726;BME280;41776;48.260;8.928;2023-09-07T04:27:50;51862.19;;;-145.69;58.08
1726;BME280;41776;48.260;8.928;2023-09-07T04:30:19;51854.28;;;-145.69;58.18
1726;BME280;41776;48.260;8.928;2023-09-07T04:32:50;51862.19;;;-145.69;58.06
1726;BME280;41776;48.260;8.928;2023-09-07T04:35:18;51840.41;;;-145.69;58.38
1726;BME280;41776;48.260;8.928;2023-09-07T04:37:46;51870.13;;;-145.69;58.52
1726;BME280;41776;48.260;8.928;2023-09-07T04:40:13;51844.38;;;-145.69;58.39
1726;BME280;41776;48.260;8.928;2023-09-07T04:42:40;51854.28;;;-145.69;59.03
1726;BME280;41776;48.260;8.928;2023-09-07T04:45:07;51866.16;;;-145.69;58.70
1726;BME280;41776;48.260;8.928;2023-09-07T04:47:34;51860.22;;;-145.69;58.31
1726;BME280;41776;48.260;8.928;2023-09-07T04:50:05;51856.25;;;-145.69;58.74
1726;BME280;41776;48.260;8.928;2023-09-07T04:52:32;51850.31;;;-145.69;58.73
1726;BME280;41776;48.260;8.928;2023-09-07T04:55:00;51864.16;;;-145.69;58.75
1726;BME280;41776;48.260;8.928;2023-09-07T04:57:26;51866.16;;;-145.69;58.83
1726;BME280;41776;48.260;8.928;2023-09-07T04:59:53;51876.06;;;-145.69;59.61
1726;BME280;41776;48.260;8.928;2023-09-07T05:02:19;51876.06;;;-145.69;58.97
1726;BME280;41776;48.260;8.928;2023-09-07T05:04:46;51854.28;;;-145.69;58.91
1726;BME280;41776;48.260;8.928;2023-09-07T05:07:14;51885.94;;;-145.69;59.04
1726;BME280;41776;48.260;8.928;2023-09-07T05:09:40;51838.44;;;-145.69;59.11
1726;BME280;41776;48.260;8.928;2023-09-07T05:12:07;51856.25;;;-145.69;59.01
1726;BME280;41776;48.260;8.928;2023-09-07T05:14:33;51848.34;;;-145.69;58.78
1726;BME280;41776;48.260;8.928;2023-09-07T05:17:00;51866.16;;;-145.69;58.72
1726;BME280;41776;48.260;8.928;2023-09-07T05:19:27;51852.28;;;-145.69;58.68
1726;BME280;41776;48.260;8.928;2023-09-07T05:21:53;51850.31;;;-145.69;58.42
1726;BME280;41776;48.260;8.928;2023-09-07T05:24:24;51882.00;;;-145.69;58.71
1726;BME280;41776;48.260;8.928;2023-09-07T05:26:53;51836.44;;;-145.69;58.80
1726;BME280;41776;48.260;8.928;2023-09-07T05:29:22;51856.25;;;-145.69;58.76
1726;BME280;41776;48.260;8.928;2023-09-07T05:31:49;51858.22;;;-145.69;58.82
1726;BME280;41776;48.260;8.928;2023-09-07T05:34:19;51846.34;;;-145.69;58.54
1726;BME280;41776;48.260;8.928;2023-09-07T05:36:45;51838.44;;;-145.69;58.79
1726;BME280;41776;48.260;8.928;2023-09-07T05:39:13;51885.94;;;-145.69;59.04
1726;BME280;41776;48.260;8.928;2023-09-07T05:41:41;51846.34;;;-145.69;59.11
1726;BME280;41776;48.260;8.928;2023-09-07T05:44:08;51864.16;;;-145.69;60.07
1726;BME280;41776;48.260;8.928;2023-09-07T05:46:36;51842.38;;;-145.69;59.43
1726;BME280;41776;48.260;8.928;2023-09-07T05:49:07;51830.50;;;-145.69;58.79
1726;BME280;41776;48.260;8.928;2023-09-07T05:51:35;51828.53;;;-145.69;58.88
1726;BME280;41776;48.260;8.928;2023-09-07T05:54:02;51824.56;;;-145.69;59.25
1726;BME280;41776;48.260;8.928;2023-09-07T05:56:31;51848.34;;;-145.69;58.97
1726;BME280;41776;48.260;8.928;2023-09-07T05:59:00;51846.34;;;-145.69;58.41
1726;BME280;41776;48.260;8.928;2023-09-07T06:01:26;51848.34;;;-145.69;58.53
1726;BME280;41776;48.260;8.928;2023-09-07T06:03:53;51880.00;;;-145.69;58.66
1726;BME280;41776;48.260;8.928;2023-09-07T06:06:20;51838.44;;;-145.69;58.73
1726;BME280;41776;48.260;8.928;2023-09-07T06:08:48;51862.19;;;-145.69;59.28
1726;BME280;41776;48.260;8.928;2023-09-07T06:11:14;51854.28;;;-145.69;59.19
1726;BME280;41776;48.260;8.928;2023-09-07T06:13:41;51862.19;;;-145.69;58.87
1726;BME280;41776;48.260;8.928;2023-09-07T06:16:09;51858.22;;;-145.69;59.46
1726;BME280;41776;48.260;8.928;2023-09-07T06:18:35;51848.34;;;-145.69;59.46
1726;BME280;41776;48.260;8.928;2023-09-07T06:21:02;51858.22;;;-145.69;59.38
1726;BME280;41776;48.260;8.928;2023-09-07T06:23:40;51832.50;;;-145.69;59.17
1726;BME280;41776;48.260;8.928;2023-09-07T06:26:07;51842.38;;;-145.69;59.07
1726;BME280;41776;48.260;8.928;2023-09-07T06:28:33;51850.31;;;-145.69;59.27
1726;BME280;41776;48.260;8.928;2023-09-07T06:31:00;51868.13;;;-145.69;59.21
1726;BME280;41776;48.260;8.928;2023-09-07T06:33:30;51834.47;;;-145.69;59.41
1726;BME280;41776;48.260;8.928;2023-09-07T06:35:56;51842.38;;;-145.69;59.67
1726;BME280;41776;48.260;8.928;2023-09-07T06:38:26;51822.59;;;-145.69;59.74
1726;BME280;41776;48.260;8.928;2023-09-07T06:40:55;51842.38;;;-145.69;59.50
1726;BME280;41776;48.260;8.928;2023-09-07T06:43:21;51834.47;;;-145.69;59.69
1726;BME280;41776;48.260;8.928;2023-09-07T06:45:48;51860.22;;;-145.69;59.57
1726;BME280;41776;48.260;8.928;2023-09-07T06:48:14;51834.47;;;-145.69;59.56
1726;BME280;41776;48.260;8.928;2023-09-07T06:50:42;51818.63;;;-145.69;59.68
1726;BME280;41776;48.260;8.928;2023-09-07T06:53:09;51816.66;;;-145.69;59.52
1726;BME280;41776;48.260;8.928;2023-09-07T06:55:35;51814.66;;;-145.69;59.58
1726;BME280;41776;48.260;8.928;2023-09-07T06:58:02;51838.44;;;-145.69;59.91
1726;BME280;41776;48.260;8.928;2023-09-07T07:00:28;51810.72;;;-145.69;59.67
1726;BME280;41776;48.260;8.928;2023-09-07T07:02:55;51838.44;;;-145.69;59.40
1726;BME280;41776;48.260;8.928;2023-09-07T07:05:23;51838.44;;;-145.69;59.58
1726;BME280;41776;48.260;8.928;2023-09-07T07:07:55;51814.66;;;-145.69;59.26
1726;BME280;41776;48.260;8.928;2023-09-07T07:10:21;51792.88;;;-145.69;59.66
1726;BME280;41776;48.260;8.928;2023-09-07T07:12:48;51826.56;;;-145.69;59.56
1726;BME280;41776;48.260;8.928;2023-09-07T07:15:14;51818.63;;;-145.69;58.99
1726;BME280;41776;48.260;8.928;2023-09-07T07:17:41;51816.66;;;-145.69;59.45
1726;BME280;41776;48.260;8.928;2023-09-07T07:20:08;51794.88;;;-145.69;58.96
1726;BME280;41776;48.260;8.928;2023-09-07T07:22:40;51775.06;;;-145.69;59.20
1726;BME280;41776;48.260;8.928;2023-09-07T07:25:10;51830.50;;;-145.69;58.17
1726;BME280;41776;48.260;8.928;2023-09-07T07:27:39;51790.91;;;-145.69;57.45
1726;BME280;41776;48.260;8.928;2023-09-07T07:30:06;51794.88;;;-145.69;58.02
1726;BME280;41776;48.260;8.928;2023-09-07T07:32:33;51820.59;;;-145.69;57.96
1726;BME280;41776;48.260;8.928;2023-09-07T07:35:00;51779.03;;;-145.69;57.47
1726;BME280;41776;48.260;8.928;2023-09-07T07:37:26;51755.25;;;-145.69;56.86
1726;BME280;41776;48.260;8.928;2023-09-07T07:39:53;51806.75;;;-145.69;57.05
1726;BME280;41776;48.260;8.928;2023-09-07T07:42:21;51777.03;;;-145.69;57.10
1726;BME280;41776;48.260;8.928;2023-09-07T07:44:49;51808.72;;;-145.69;56.08
1726;BME280;41776;48.260;8.928;2023-09-07T07:47:16;51820.59;;;-145.69;55.39
1726;BME280;41776;48.260;8.928;2023-09-07T07:49:42;51773.09;;;-145.69;54.88
1726;BME280;41776;48.260;8.928;2023-09-07T07:52:09;51777.03;;;-145.69;54.38
1726;BME280;41776;48.260;8.928;2023-09-07T07:54:43;51773.09;;;-145.69;54.82
1726;BME280;41776;48.260;8.928;2023-09-07T07:57:09;51771.09;;;-145.69;53.74
1726;BME280;41776;48.260;8.928;2023-09-07T07:59:39;51779.03;;;-145.69;52.71
1726;BME280;41776;48.260;8.928;2023-09-07T08:02:09;51743.38;;;-145.69;52.30
1726;BME280;41776;48.260;8.928;2023-09-07T08:04:36;51755.25;;;-145.69;51.33
1726;BME280;41776;48.260;8.928;2023-09-07T08:07:03;51775.06;;;-145.69;50.24
1726;BME280;41776;48.260;8.928;2023-09-07T08:09:30;51743.38;;;-145.69;50.15
1726;BME280;41776;48.260;8.928;2023-09-07T08:11:56;51751.31;;;-145.69;49.73
1726;BME280;41776;48.260;8.928;2023-09-07T08:14:24;51759.22;;;-145.69;49.84
1726;BME280;41776;48.260;8.928;2023-09-07T08:16:52;51719.63;;;-145.69;48.52
1726;BME280;41776;48.260;8.928;2023-09-07T08:19:19;51733.50;;;-145.69;48.26
1726;BME280;41776;48.260;8.928;2023-09-07T08:21:46;51735.47;;;-145.69;48.30
1726;BME280;41776;48.260;8.928;2023-09-07T08:24:12;51739.44;;;-145.69;48.11
1726;BME280;41776;48.260;8.928;2023-09-07T08:26:39;51753.28;;;-145.69;48.39
1726;BME280;41776;48.260;8.928;2023-09-07T08:29:08;51739.44;;;-145.69;50.17
1726;BME280;41776;48.260;8.928;2023-09-07T08:31:36;51755.25;;;-145.69;49.78
1726;BME280;41776;48.260;8.928;2023-09-07T08:34:06;51719.63;;;-145.69;49.49
1726;BME280;41776;48.260;8.928;2023-09-07T08:36:36;51763.19;;;-145.69;49.26
1726;BME280;41776;48.260;8.928;2023-09-07T08:39:03;51727.53;;;-145.69;49.35
1726;BME280;41776;48.260;8.928;2023-09-07T08:41:36;51741.41;;;-145.69;49.09
1726;BME280;41776;48.260;8.928;2023-09-07T08:44:06;51725.56;;;-145.69;48.72
1726;BME280;41776;48.260;8.928;2023-09-07T08:46:34;51733.50;;;-145.69;49.81
1726;BME280;41776;48.260;8.928;2023-09-07T08:49:02;51719.63;;;-145.69;48.63
1726;BME280;41776;48.260;8.928;2023-09-07T08:51:31;51755.25;;;-145.69;48.85
1726;BME280;41776;48.260;8.928;2023-09-07T08:53:58;51731.50;;;-145.69;48.93
1726;BME280;41776;48.260;8.928;2023-09-07T08:56:24;51743.38;;;-145.69;48.61
1726;BME280;41776;48.260;8.928;2023-09-07T08:58:51;51727.53;;;-145.69;49.16
1726;BME280;41776;48.260;8.928;2023-09-07T09:01:18;51727.53;;;-145.69;48.58
1726;BME280;41776;48.260;8.928;2023-09-07T09:03:47;51739.44;;;-145.69;48.34
1726;BME280;41776;48.260;8.928;2023-09-07T09:06:17;51737.44;;;-145.69;48.01
1726;BME280;41776;48.260;8.928;2023-09-07T09:08:46;51735.47;;;-145.69;47.94
1726;BME280;41776;48.260;8.928;2023-09-07T09:11:14;51735.47;;;-145.69;47.47
1726;BME280;41776;48.260;8.928;2023-09-07T09:13:42;51743.38;;;-145.69;47.65
1726;BME280;41776;48.260;8.928;2023-09-07T09:16:09;51719.63;;;-145.69;47.40
1726;BME280;41776;48.260;8.928;2023-09-07T09:18:35;51707.75;;;-145.69;47.36
1726;BME280;41776;48.260;8.928;2023-09-07T09:21:03;51743.38;;;-145.69;47.83
1726;BME280;41776;48.260;8.928;2023-09-07T09:23:31;51751.31;;;-145.69;47.16
1726;BME280;41776;48.260;8.928;2023-09-07T09:26:00;51725.56;;;-145.69;46.82
1726;BME280;41776;48.260;8.928;2023-09-07T09:28:30;51727.53;;;-145.69;46.77
1726;BME280;41776;48.260;8.928;2023-09-07T09:30:58;51719.63;;;-145.69;47.28
1726;BME280;41776;48.260;8.928;2023-09-07T09:33:25;51703.78;;;-145.69;46.83
1726;BME280;41776;48.260;8.928;2023-09-07T09:35:53;51735.47;;;-145.69;47.09
1726;BME280;41776;48.260;8.928;2023-09-07T09:38:20;51733.50;;;-145.69;46.59
1726;BME280;41776;48.260;8.928;2023-09-07T09:40:47;51747.34;;;-145.69;46.61
1726;BME280;41776;48.260;8.928;2023-09-07T09:43:19;51699.81;;;-145.69;47.24
1726;BME280;41776;48.260;8.928;2023-09-07T09:45:46;51737.44;;;-145.69;47.19
1726;BME280;41776;48.260;8.928;2023-09-07T09:48:14;51685.97;;;-145.69;46.82
1726;BME280;41776;48.260;8.928;2023-09-07T09:50:46;51707.75;;;-145.69;45.85
1726;BME280;41776;48.260;8.928;2023-09-07T09:53:14;51731.50;;;-145.69;46.22
1726;BME280;41776;48.260;8.928;2023-09-07T09:55:44;51737.44;;;-145.69;46.59
1726;BME280;41776;48.260;8.928;2023-09-07T09:58:12;51739.44;;;-145.69;46.49
1726;BME280;41776;48.260;8.928;2023-09-07T10:00:42;51711.72;;;-145.69;45.62
1726;BME280;41776;48.260;8.928;2023-09-07T10:03:12;51683.97;;;-145.69;45.83
1726;BME280;41776;48.260;8.928;2023-09-07T10:05:44;51695.88;;;-145.69;45.47
1726;BME280;41776;48.260;8.928;2023-09-07T10:08:13;51723.59;;;-145.69;45.59
1726;BME280;41776;48.260;8.928;2023-09-07T10:10:41;51683.97;;;-145.69;45.52
1726;BME280;41776;48.260;8.928;2023-09-07T10:13:08;51731.50;;;-145.69;45.27
1726;BME280;41776;48.260;8.928;2023-09-07T10:15:35;51695.88;;;-145.69;45.77
1726;BME280;41776;48.260;8.928;2023-09-07T10:18:10;51729.53;;;-145.69;44.50
1726;BME280;41776;48.260;8.928;2023-09-07T10:20:49;51707.75;;;-145.69;44.74
1726;BME280;41776;48.260;8.928;2023-09-07T10:23:16;51711.72;;;-145.69;45.47
1726;BME280;41776;48.260;8.928;2023-09-07T10:25:42;51715.66;;;-145.69;45.14
1726;BME280;41776;48.260;8.928;2023-09-07T10:28:20;51701.81;;;-145.69;44.94
1726;BME280;41776;48.260;8.928;2023-09-07T10:30:59;51711.72;;;-145.69;44.36
1726;BME280;41776;48.260;8.928;2023-09-07T10:33:27;51680.03;;;-145.69;44.96
1726;BME280;41776;48.260;8.928;2023-09-07T10:35:54;51717.66;;;-145.69;45.61
1726;BME280;41776;48.260;8.928;2023-09-07T10:38:20;51680.03;;;-145.69;45.06
1726;BME280;41776;48.260;8.928;2023-09-07T10:40:47;51709.72;;;-145.69;44.91
1726;BME280;41776;48.260;8.928;2023-09-07T10:43:14;51713.69;;;-145.69;44.70
1726;BME280;41776;48.260;8.928;2023-09-07T10:45:44;51699.81;;;-145.69;44.70
1726;BME280;41776;48.260;8.928;2023-09-07T10:48:12;51691.91;;;-145.69;44.06
1726;BME280;41776;48.260;8.928;2023-09-07T10:50:46;51691.91;;;-145.69;43.66
1726;BME280;41776;48.260;8.928;2023-09-07T10:53:14;51680.03;;;-145.69;44.44
1726;BME280;41776;48.260;8.928;2023-09-07T10:55:41;51683.97;;;-145.69;44.13
1726;BME280;41776;48.260;8.928;2023-09-07T10:58:09;51680.03;;;-145.69;43.94
1726;BME280;41776;48.260;8.928;2023-09-07T11:00:36;51691.91;;;-145.69;43.69
1726;BME280;41776;48.260;8.928;2023-09-07T11:03:07;51683.97;;;-145.69;44.10
1726;BME280;41776;48.260;8.928;2023-09-07T11:05:34;51693.88;;;-145.69;42.82
1726;BME280;41776;48.260;8.928;2023-09-07T11:08:04;51689.94;;;-145.69;42.88
1726;BME280;41776;48.260;8.928;2023-09-07T11:10:33;51683.97;;;-145.69;43.07
1726;BME280;41776;48.260;8.928;2023-09-07T11:13:02;51695.88;;;-145.69;42.64
1726;BME280;41776;48.260;8.928;2023-09-07T11:15:29;51711.72;;;-145.69;42.69
1726;BME280;41776;48.260;8.928;2023-09-07T11:17:55;51668.16;;;-145.69;42.83
1726;BME280;41776;48.260;8.928;2023-09-07T11:20:23;51656.25;;;-145.69;42.33
1726;BME280;41776;48.260;8.928;2023-09-07T11:22:49;51664.19;;;-145.69;42.05
1726;BME280;41776;48.260;8.928;2023-09-07T11:25:17;51648.34;;;-145.69;42.00
1726;BME280;41776;48.260;8.928;2023-09-07T11:27:44;51682.00;;;-145.69;42.48
1726;BME280;41776;48.260;8.928;2023-09-07T11:30:11;51672.09;;;-145.69;41.98
1726;BME280;41776;48.260;8.928;2023-09-07T11:32:38;51656.25;;;-145.69;41.34
1726;BME280;41776;48.260;8.928;2023-09-07T11:35:06;51658.25;;;-145.69;41.29
1726;BME280;41776;48.260;8.928;2023-09-07T11:37:34;51695.88;;;-145.69;41.27
1726;BME280;41776;48.260;8.928;2023-09-07T11:40:01;51689.94;;;-145.69;41.30
1726;BME280;41776;48.260;8.928;2023-09-07T11:42:31;51652.31;;;-145.69;41.80
1726;BME280;41776;48.260;8.928;2023-09-07T11:44:57;51668.16;;;-145.69;41.24
1726;BME280;41776;48.260;8.928;2023-09-07T11:47:24;51640.44;;;-145.69;41.17
1726;BME280;41776;48.260;8.928;2023-09-07T11:49:50;51656.25;;;-145.69;41.15
1726;BME280;41776;48.260;8.928;2023-09-07T11:52:18;51656.25;;;-145.69;41.33
1726;BME280;41776;48.260;8.928;2023-09-07T11:54:45;51672.09;;;-145.69;41.48
1726;BME280;41776;48.260;8.928;2023-09-07T11:57:11;51648.34;;;-145.69;41.54
1726;BME280;41776;48.260;8.928;2023-09-07T11:59:39;51662.22;;;-145.69;40.64
1726;BME280;41776;48.260;8.928;2023-09-07T12:02:06;51650.31;;;-145.69;40.71
1726;BME280;41776;48.260;8.928;2023-09-07T12:04:36;51632.50;;;-145.69;40.28
1726;BME280;41776;48.260;8.928;2023-09-07T12:07:03;51652.31;;;-145.69;40.35
1726;BME280;41776;48.260;8.928;2023-09-07T12:09:30;51664.19;;;-145.69;41.24
1726;BME280;41776;48.260;8.928;2023-09-07T12:11:56;51656.25;;;-145.69;40.85
1726;BME280;41776;48.260;8.928;2023-09-07T12:14:23;51656.25;;;-145.69;40.63
1726;BME280;41776;48.260;8.928;2023-09-07T12:16:51;51646.38;;;-145.69;40.51
1726;BME280;41776;48.260;8.928;2023-09-07T12:19:18;51632.50;;;-145.69;40.50
1726;BME280;41776;48.260;8.928;2023-09-07T12:21:44;51650.31;;;-145.69;40.46
1726;BME280;41776;48.260;8.928;2023-09-07T12:24:11;51622.59;;;-145.69;39.93
1726;BME280;41776;48.260;8.928;2023-09-07T12:26:38;51638.44;;;-145.69;39.84
1726;BME280;41776;48.260;8.928;2023-09-07T12:29:05;51648.34;;;-145.69;39.91
1726;BME280;41776;48.260;8.928;2023-09-07T12:31:33;51632.50;;;-145.69;39.59
1726;BME280;41776;48.260;8.928;2023-09-07T12:34:01;51664.19;;;-145.69;39.32
1726;BME280;41776;48.260;8.928;2023-09-07T12:36:28;51624.59;;;-145.69;39.96
1726;BME280;41776;48.260;8.928;2023-09-07T12:38:55;51626.56;;;-145.69;39.19
1726;BME280;41776;48.260;8.928;2023-09-07T12:41:23;51620.63;;;-145.69;39.58
1726;BME280;41776;48.260;8.928;2023-09-07T12:43:49;51632.50;;;-145.69;39.09
1726;BME280;41776;48.260;8.928;2023-09-07T12:46:17;51628.53;;;-145.69;39.30
1726;BME280;41776;48.260;8.928;2023-09-07T12:48:44;51628.53;;;-145.69;39.04
1726;BME280;41776;48.260;8.928;2023-09-07T12:51:12;51644.38;;;-145.69;39.07
1726;BME280;41776;48.260;8.928;2023-09-07T12:53:38;51640.44;;;-145.69;38.83